Impacts METAR Board
IDs:

KSTL - St Louis/Lambert Int, MO, US

Updated at: 0400 UTC 10 Dec 2018
Potential Impact None Slight Moderate High
Time 09/16Z 09/17Z 09/18Z 09/19Z 09/20Z 09/21Z 09/22Z 09/23Z 10/00Z 10/01Z 10/02Z 10/03Z 10/04Z
Temp24 28 32 33 35 35 34 30 30 26 27 24 22
Dewpt19 20 20 21 22 20 19 20 20 19 21 20 19
Altim30.36 30.35 30.33 30.31 30.30 30.30 30.31 30.31 30.31 30.32 30.32 30.33 30.34
VIS9 9 10 10 10 10 10 10 10 10 10 8 7
CIG-- -- -- -- -- -- -- -- -- -- -- -- --
CoverSCTSCTFEWFEWFEWFEWFEWFEWFEWFEWFEWFEWFEW
FltCatVFRVFRVFRVFRVFRVFRVFRVFRVFRVFRVFRVFRVFR
WX--------------------------
WDir33033034034033036036035010350330320310
WSpd7 7 8 9 8 12 10 8 7 4 3 3 5
WGst-- -- -- -- -- -- -- -- -- -- -- -- --
Raw hourly METARs
KSTL 091551Z 33007KT 9SM FEW150 SCT250 M04/M07 A3036 RMK AO2 SLP297 T10441072
KSTL 091651Z 33007KT 9SM SCT250 M02/M07 A3035 RMK AO2 SLP291 T10221067
KSTL 091751Z 34008KT 10SM FEW250 00/M07 A3033 RMK AO2 SLP285 T00001067 10000 21083 58003
KSTL 091851Z 34009KT 10SM FEW250 01/M06 A3031 RMK AO2 SLP276 T00061061
KSTL 091951Z 33008KT 10SM FEW250 02/M06 A3030 RMK AO2 SLP272 T00171056
KSTL 092051Z 36012KT 10SM FEW250 02/M07 A3030 RMK AO2 SLP273 T00171067 55011
KSTL 092151Z 36010KT 10SM FEW250 01/M07 A3031 RMK AO2 SLP277 T00111072
KSTL 092251Z 35008KT 10SM FEW250 M01/M07 A3031 RMK AO2 SLP281 T10111067
KSTL 092351Z 01007KT 10SM FEW250 M01/M07 A3031 RMK AO2 SLP281 T10111067 10022 21017 51005
KSTL 100051Z 35004KT 10SM FEW250 M03/M07 A3032 RMK AO2 SLP282 T10331072
KSTL 100151Z 33003KT 10SM FEW250 M03/M06 A3032 RMK AO2 SLP284 T10281061
KSTL 100251Z 32003KT 8SM FEW250 M04/M07 A3033 RMK AO2 SLP286 T10441067 53005
KSTL 100351Z 31005KT 7SM FEW250 M06/M07 A3034 RMK AO2 SLP289 T10561072



Page loaded:  04:15 UTC  |   08:15 PM Pacific  |   09:15 PM Mountain  |   10:15 PM Central  |   11:15 PM Eastern

 

ADVISORIES

FORECASTS

FORECASTS

OBSERVATIONS

USER TOOLS

ABOUT US